Martinsburg, Missouri
Current Conditions -  °F | °C
As of 12:54 AM on Thursday 18 Dec 2014 (Local Time) from KCOU Reporting Station
Overcast Overcast  
Wind Chill: 26°   Ceiling: 6000
Heat Index: 31°   Visibility: 10mi
Dew Point: 25°   Wind: 5mph
Humidity: 79%   Direction: 70°ENE
Pressure: 30.26"   Gusts: NA
Location:  39.1°N, 91.65°W
Report Text: KCOU 180654Z AUTO 07004KT 10SM OVC060 M01/M04 A3026 RMK AO2 SLP254 T10061039
Loading
Personal Weather Stations






























Interactive Weather Map New forecast layout! Learn more

10-Day Weather Forecast

Advertisements
Track Severe Weather on mobile